Time;durP1;ratioP1;P1;durP2;ratioP2;P2;SDS_P1;SDS_P2;PMS_P1;PMS_P2;Temp;Humidity;BMP_temperature;BMP_pressure;BME280_temperature;BME280_humidity;BME280_pressure;Samples;Min_cycle;Max_cycle;Signal;HPM_P1;HPM_P2
2023/07/27 00:00:29;;;;;;;2.30;0.80;;;16.10;99.90;;;;;;5053905;28;20024;-75
2023/07/27 00:02:54;;;;;;;2.97;0.85;;;16.10;99.90;;;;;;5053707;28;20028;-75
2023/07/27 00:05:20;;;;;;;1.95;0.93;;;16.10;99.90;;;;;;5053892;28;20025;-75
2023/07/27 00:07:46;;;;;;;2.35;0.63;;;16.10;99.90;;;;;;5052668;28;20021;-75
2023/07/27 00:10:11;;;;;;;2.55;1.20;;;16.10;99.90;;;;;;5054022;28;20021;-75
2023/07/27 00:12:37;;;;;;;5.00;0.55;;;16.10;99.90;;;;;;5052250;28;20036;-75
2023/07/27 00:15:02;;;;;;;3.53;1.08;;;16.10;99.90;;;;;;5053745;28;20472;-75
2023/07/27 00:17:28;;;;;;;2.25;0.90;;;16.10;99.90;;;;;;5054246;28;20025;-75
2023/07/27 00:19:54;;;;;;;2.83;0.88;;;16.10;99.90;;;;;;5053507;28;20079;-75
2023/07/27 00:22:20;;;;;;;4.35;0.90;;;16.10;99.90;;;;;;5054006;28;20029;-75
2023/07/27 00:24:45;;;;;;;3.25;1.02;;;16.10;99.90;;;;;;5053969;28;20368;-75
2023/07/27 00:27:11;;;;;;;2.97;1.10;;;16.10;99.90;;;;;;5053421;28;20103;-75
2023/07/27 00:29:36;;;;;;;3.67;1.35;;;16.10;99.90;;;;;;5053429;28;20025;-75
2023/07/27 00:32:02;;;;;;;2.20;0.80;;;16.10;99.90;;;;;;5053422;28;20088;-75
2023/07/27 00:34:27;;;;;;;6.60;1.20;;;16.20;99.90;;;;;;5053203;28;20013;-75
2023/07/27 00:36:53;;;;;;;3.40;1.02;;;16.20;99.90;;;;;;5053345;28;20017;-75
2023/07/27 00:39:18;;;;;;;2.45;0.85;;;16.20;99.90;;;;;;5053860;28;20116;-75
2023/07/27 00:41:44;;;;;;;1.40;0.80;;;16.10;99.90;;;;;;5052021;28;20025;-75
2023/07/27 00:44:10;;;;;;;4.80;1.85;;;16.10;99.90;;;;;;5053711;28;20121;-76
2023/07/27 00:46:36;;;;;;;2.38;0.73;;;16.10;99.90;;;;;;5053218;28;20025;-75
2023/07/27 00:49:03;;;;;;;1.92;0.90;;;16.10;99.90;;;;;;5053186;28;20456;-75
2023/07/27 00:51:35;;;;;;;4.43;1.05;;;16.10;99.90;;;;;;5051877;28;20036;-75
2023/07/27 00:54:05;;;;;;;2.63;0.70;;;16.10;99.90;;;;;;5053054;28;20113;-75
2023/07/27 00:56:32;;;;;;;3.80;1.27;;;16.00;99.90;;;;;;5053163;28;20029;-75
2023/07/27 00:59:02;;;;;;;5.43;0.95;;;15.90;99.90;;;;;;5051786;28;20036;-75
2023/07/27 01:01:28;;;;;;;4.35;1.52;;;15.90;99.90;;;;;;5053507;28;20108;-75
2023/07/27 01:03:54;;;;;;;4.47;1.20;;;15.80;99.90;;;;;;5053020;28;20084;-75
2023/07/27 01:06:20;;;;;;;2.85;1.02;;;15.90;99.90;;;;;;5051705;28;20112;-75
2023/07/27 01:08:46;;;;;;;5.00;1.30;;;15.80;99.90;;;;;;5053534;28;20056;-75
2023/07/27 01:11:33;;;;;;;4.75;1.33;;;15.70;99.90;;;;;;5052957;28;20051;-75
2023/07/27 01:14:13;;;;;;;2.75;1.40;;;15.70;99.90;;;;;;5052903;28;20083;-75
2023/07/27 01:16:54;;;;;;;3.08;1.00;;;15.70;99.90;;;;;;5052931;28;20029;-75
2023/07/27 01:19:28;;;;;;;2.58;0.77;;;15.60;99.90;;;;;;5052965;28;20079;-75
2023/07/27 01:22:19;;;;;;;2.00;0.75;;;15.50;99.90;;;;;;5052896;28;20059;-75
2023/07/27 01:25:13;;;;;;;3.92;1.20;;;15.50;99.90;;;;;;5054591;28;20037;-75
2023/07/27 01:27:55;;;;;;;4.35;1.08;;;15.40;99.90;;;;;;5055708;28;20487;-75
2023/07/27 01:30:49;;;;;;;3.38;0.95;;;15.40;99.90;;;;;;5057360;28;20499;-75
2023/07/27 01:33:17;;;;;;;2.72;0.80;;;15.40;99.90;;;;;;5055424;28;20025;-75
2023/07/27 01:36:11;;;;;;;2.00;0.52;;;15.40;99.90;;;;;;5056736;28;20021;-75
2023/07/27 01:38:46;;;;;;;2.03;0.60;;;15.40;99.90;;;;;;5056705;28;20108;-75
2023/07/27 01:41:13;;;;;;;0.80;0.20;;;15.30;99.90;;;;;;5056769;28;20176;-75
2023/07/27 01:43:41;;;;;;;1.50;0.30;;;15.30;99.90;;;;;;5055130;28;20387;-75
2023/07/27 01:46:07;;;;;;;3.03;0.57;;;15.20;99.90;;;;;;5056539;28;20531;-75
2023/07/27 01:48:36;;;;;;;3.15;0.25;;;15.20;99.90;;;;;;5056440;28;20354;-75
2023/07/27 01:51:03;;;;;;;1.05;0.17;;;15.20;99.90;;;;;;5055176;28;20023;-75
2023/07/27 01:53:30;;;;;;;0.47;0.10;;;15.20;99.90;;;;;;5055049;28;20032;-75
2023/07/27 01:55:56;;;;;;;2.33;0.17;;;15.10;99.90;;;;;;5056264;28;20391;-75
2023/07/27 01:58:24;;;;;;;1.30;0.38;;;15.10;99.90;;;;;;5055036;28;20021;-75
2023/07/27 02:00:50;;;;;;;3.55;0.30;;;15.20;99.90;;;;;;5054924;28;20104;-75
2023/07/27 02:03:16;;;;;;;2.10;0.15;;;15.10;99.90;;;;;;5055824;28;20036;-75
2023/07/27 02:05:41;;;;;;;2.47;0.40;;;15.10;99.90;;;;;;5054861;28;20361;-75
2023/07/27 02:08:07;;;;;;;1.58;0.50;;;15.10;99.90;;;;;;5054842;28;20021;-75
2023/07/27 02:10:33;;;;;;;1.73;0.15;;;15.10;99.90;;;;;;5054829;28;20021;-75
2023/07/27 02:13:08;;;;;;;0.38;0.00;;;15.10;99.90;;;;;;5056055;28;20021;-75
2023/07/27 02:15:43;;;;;;;1.95;0.20;;;15.10;99.90;;;;;;5056634;28;20471;-75
2023/07/27 02:18:16;;;;;;;1.33;0.40;;;15.00;99.90;;;;;;5054834;28;20116;-75
2023/07/27 02:20:43;;;;;;;2.05;0.10;;;15.00;99.90;;;;;;5055959;28;20036;-75
2023/07/27 02:23:10;;;;;;;1.08;0.20;;;15.00;99.90;;;;;;5055725;28;20021;-75
2023/07/27 02:25:36;;;;;;;1.48;0.20;;;15.00;99.90;;;;;;5055729;28;20027;-75
2023/07/27 02:28:01;;;;;;;0.65;0.10;;;15.00;99.90;;;;;;5055855;28;20021;-75
2023/07/27 02:30:27;;;;;;;4.45;0.20;;;15.00;99.90;;;;;;5054482;28;20032;-75
2023/07/27 02:32:52;;;;;;;1.17;0.38;;;15.00;99.90;;;;;;5055660;28;20380;-75
2023/07/27 02:35:19;;;;;;;2.40;0.20;;;15.00;99.90;;;;;;5055077;28;20033;-75
2023/07/27 02:37:44;;;;;;;3.63;0.65;;;15.00;99.90;;;;;;5055549;28;20021;-75
2023/07/27 02:40:10;;;;;;;1.77;0.30;;;15.10;99.90;;;;;;5055568;28;20035;-75
2023/07/27 02:42:35;;;;;;;2.58;0.32;;;15.00;99.90;;;;;;5055401;28;20098;-75
2023/07/27 02:45:01;;;;;;;0.63;0.10;;;15.00;99.90;;;;;;5055364;28;20423;-75
2023/07/27 02:47:27;;;;;;;1.95;1.13;;;15.00;99.90;;;;;;5055329;28;20535;-75
2023/07/27 02:49:52;;;;;;;1.20;0.38;;;15.00;99.90;;;;;;5055387;28;20419;-75
2023/07/27 02:52:18;;;;;;;1.33;0.65;;;15.00;99.90;;;;;;5055196;28;20043;-75
2023/07/27 02:54:43;;;;;;;2.50;0.10;;;15.00;99.90;;;;;;5055164;28;20492;-75
2023/07/27 02:57:09;;;;;;;2.08;0.65;;;15.00;99.90;;;;;;5055760;28;20025;-75
2023/07/27 02:59:34;;;;;;;1.00;0.63;;;14.90;99.90;;;;;;5055117;28;20067;-75
2023/07/27 03:02:00;;;;;;;1.85;0.50;;;14.90;99.90;;;;;;5054933;28;20145;-75
2023/07/27 03:04:25;;;;;;;2.08;0.38;;;14.90;99.90;;;;;;5053629;28;20127;-75
2023/07/27 03:06:51;;;;;;;1.73;0.47;;;14.90;99.90;;;;;;5054990;28;20496;-75
2023/07/27 03:09:16;;;;;;;2.60;0.70;;;14.90;99.90;;;;;;5054958;28;20049;-75
2023/07/27 03:11:42;;;;;;;2.78;0.40;;;14.90;99.90;;;;;;5055001;28;20025;-75
2023/07/27 03:14:07;;;;;;;3.38;0.90;;;14.90;99.90;;;;;;5055179;28;20100;-75
2023/07/27 03:16:34;;;;;;;1.42;0.43;;;14.40;99.90;;;;;;5054889;28;20052;-75
2023/07/27 03:18:59;;;;;;;1.17;0.40;;;14.90;99.90;;;;;;5053621;28;20071;-75
2023/07/27 03:21:25;;;;;;;1.00;0.40;;;14.90;99.90;;;;;;5054782;28;20434;-75
2023/07/27 03:23:50;;;;;;;2.35;0.55;;;14.80;99.90;;;;;;5053322;28;20616;-75
2023/07/27 03:26:16;;;;;;;1.35;0.30;;;14.90;99.90;;;;;;5054748;28;20499;-75
2023/07/27 03:28:42;;;;;;;2.45;0.70;;;14.90;99.90;;;;;;5054682;28;20071;-75
2023/07/27 03:31:15;;;;;;;2.00;0.50;;;14.80;99.90;;;;;;5054574;28;20025;-75
2023/07/27 03:33:41;;;;;;;1.52;0.60;;;14.90;99.90;;;;;;5054460;28;20107;-75
2023/07/27 03:36:06;;;;;;;11.07;0.95;;;14.80;99.90;;;;;;5054471;28;20480;-75
2023/07/27 03:38:32;;;;;;;1.70;0.65;;;14.90;99.90;;;;;;5053140;28;20025;-75
2023/07/27 03:40:58;;;;;;;2.05;0.80;;;14.90;99.90;;;;;;5054402;28;20021;-75
2023/07/27 03:43:23;;;;;;;2.42;0.70;;;14.80;99.90;;;;;;5054636;28;20108;-75
2023/07/27 03:45:52;;;;;;;2.30;1.23;;;14.90;99.90;;;;;;5054833;28;20028;-75
2023/07/27 03:48:18;;;;;;;;;;;14.80;99.90;;;;;;5053821;28;20547;-75
2023/07/27 03:50:43;;;;;;;2.78;1.15;;;14.90;99.90;;;;;;5054219;28;19952;-75
2023/07/27 03:53:09;;;;;;;3.45;1.40;;;14.90;99.90;;;;;;5052848;28;20063;-75
2023/07/27 03:55:34;;;;;;;3.70;1.55;;;14.90;99.90;;;;;;5053915;28;20079;-75
2023/07/27 03:58:00;;;;;;;2.85;1.20;;;14.90;99.90;;;;;;5052790;28;20032;-75
2023/07/27 04:00:25;;;;;;;4.32;1.90;;;14.90;99.90;;;;;;5053969;28;20476;-75
2023/07/27 04:02:51;;;;;;;6.75;1.88;;;14.90;99.90;;;;;;5053732;28;20033;-75
2023/07/27 04:05:16;;;;;;;4.70;1.95;;;14.90;99.90;;;;;;5053847;28;20482;-75
2023/07/27 04:07:42;;;;;;;8.77;2.70;;;14.90;99.90;;;;;;5052680;28;20545;-75
2023/07/27 04:10:08;;;;;;;6.03;2.85;;;14.80;99.90;;;;;;5053820;28;20029;-75
2023/07/27 04:12:33;;;;;;;4.38;2.25;;;14.90;99.90;;;;;;5053690;28;20039;-75
2023/07/27 04:14:59;;;;;;;7.68;3.38;;;14.90;99.90;;;;;;5053766;28;20033;-75
2023/07/27 04:17:24;;;;;;;9.73;3.17;;;14.90;99.90;;;;;;5054187;28;20029;-75
2023/07/27 04:19:51;;;;;;;7.22;3.55;;;14.90;99.90;;;;;;5053745;28;20029;-75
2023/07/27 04:22:16;;;;;;;7.82;4.10;;;14.90;99.90;;;;;;5053547;28;20095;-75
2023/07/27 04:24:44;;;;;;;7.53;3.78;;;14.90;99.90;;;;;;5053502;28;20524;-75
2023/07/27 04:27:11;;;;;;;8.82;3.65;;;14.90;99.90;;;;;;5054029;28;20403;-75
2023/07/27 04:29:37;;;;;;;7.20;3.80;;;14.90;99.90;;;;;;5053438;28;20045;-75
2023/07/27 04:32:02;;;;;;;8.68;4.60;;;14.80;99.90;;;;;;5052125;28;20068;-75
2023/07/27 04:34:28;;;;;;;9.13;4.88;;;14.80;99.90;;;;;;5053266;28;20025;-75
2023/07/27 04:36:53;;;;;;;9.35;4.53;;;14.80;99.90;;;;;;5052117;28;20519;-75
2023/07/27 04:39:19;;;;;;;9.90;4.78;;;14.70;99.90;;;;;;5053873;28;20025;-75
2023/07/27 04:41:45;;;;;;;10.18;4.30;;;14.70;99.90;;;;;;5052089;28;20032;-75
2023/07/27 04:44:10;;;;;;;9.90;4.60;;;14.70;99.90;;;;;;5053142;28;20025;-75
2023/07/27 04:46:36;;;;;;;7.63;4.18;;;14.70;99.90;;;;;;5053282;28;20025;-75
2023/07/27 04:49:01;;;;;;;13.02;4.20;;;14.70;99.90;;;;;;5053192;28;20017;-75
2023/07/27 04:51:27;;;;;;;8.20;3.63;;;14.70;99.90;;;;;;5053154;28;20098;-75
2023/07/27 04:53:53;;;;;;;8.38;4.75;;;14.70;99.90;;;;;;5051828;28;20588;-75
2023/07/27 04:56:18;;;;;;;10.50;5.05;;;14.80;99.90;;;;;;5053100;28;20044;-75
2023/07/27 04:58:44;;;;;;;8.52;4.03;;;14.80;99.90;;;;;;5053467;28;20060;-75
2023/07/27 05:01:09;;;;;;;9.70;4.10;;;14.80;99.90;;;;;;5053626;28;20104;-75
2023/07/27 05:03:35;;;;;;;7.32;3.72;;;14.80;99.90;;;;;;5051533;28;20029;-75
2023/07/27 05:06:00;;;;;;;8.98;4.07;;;14.80;99.90;;;;;;5052996;28;20026;-75
2023/07/27 05:08:26;;;;;;;8.57;3.85;;;14.80;99.90;;;;;;5053045;28;20045;-75
2023/07/27 05:10:51;;;;;;;6.55;3.28;;;14.80;99.90;;;;;;5051708;28;20113;-75
2023/07/27 05:13:17;;;;;;;8.43;3.05;;;14.80;99.90;;;;;;5053496;28;20025;-74
2023/07/27 05:15:44;;;;;;;7.80;3.22;;;14.80;99.90;;;;;;5053467;28;20380;-75
2023/07/27 05:18:10;;;;;;;5.45;2.45;;;14.80;99.90;;;;;;5051657;28;20025;-75
2023/07/27 05:20:35;;;;;;;4.25;2.25;;;14.80;99.90;;;;;;5052923;28;20024;-75
2023/07/27 05:23:01;;;;;;;3.63;2.22;;;14.80;99.90;;;;;;5051539;28;20013;-75
2023/07/27 05:25:26;;;;;;;4.75;2.30;;;14.80;99.90;;;;;;5052816;28;20090;-75
2023/07/27 05:27:52;;;;;;;4.30;1.70;;;14.90;99.90;;;;;;5052897;28;20021;-75
2023/07/27 05:30:17;;;;;;;4.05;1.35;;;14.90;99.90;;;;;;5051528;28;20436;-75
2023/07/27 05:32:43;;;;;;;3.20;1.45;;;14.90;99.90;;;;;;5052695;28;20029;-75
2023/07/27 05:35:09;;;;;;;2.08;0.93;;;15.00;99.90;;;;;;5051408;28;20033;-75
2023/07/27 05:37:34;;;;;;;3.95;0.95;;;15.00;99.90;;;;;;5051545;28;20021;-75
2023/07/27 05:40:00;;;;;;;3.13;0.95;;;15.00;99.90;;;;;;5052712;28;20495;-75
2023/07/27 05:42:25;;;;;;;1.65;0.68;;;15.00;99.90;;;;;;5053241;28;20413;-75
2023/07/27 05:44:51;;;;;;;5.93;0.93;;;15.00;99.90;;;;;;5051679;28;20079;-75
2023/07/27 05:47:17;;;;;;;1.27;0.50;;;15.10;99.90;;;;;;5052659;28;20045;-75
2023/07/27 05:49:42;;;;;;;1.45;0.70;;;15.10;99.90;;;;;;5052600;28;20013;-75
2023/07/27 05:52:08;;;;;;;1.98;0.70;;;15.10;99.90;;;;;;5051369;28;20030;-75
2023/07/27 05:54:33;;;;;;;1.52;0.70;;;15.20;99.90;;;;;;5052466;28;20450;-75
2023/07/27 05:56:59;;;;;;;2.22;0.70;;;15.20;99.90;;;;;;5052566;28;20025;-75
2023/07/27 05:59:24;;;;;;;5.40;1.50;;;15.20;99.90;;;;;;5051320;28;20087;-75
2023/07/27 06:01:50;;;;;;;2.03;0.80;;;15.30;99.90;;;;;;5052338;28;20075;-75
2023/07/27 06:04:16;;;;;;;1.73;0.43;;;15.30;99.90;;;;;;5052466;28;20059;-75
2023/07/27 06:06:44;;;;;;;1.30;0.57;;;15.40;99.90;;;;;;5052494;28;20495;-75
2023/07/27 06:09:10;;;;;;;2.05;0.73;;;15.40;99.90;;;;;;5053025;28;20071;-75
2023/07/27 06:11:35;;;;;;;1.38;0.70;;;15.40;99.90;;;;;;5054023;28;20472;-74
2023/07/27 06:14:01;;;;;;;2.05;0.60;;;15.40;99.90;;;;;;5056377;28;20427;-75
2023/07/27 06:16:26;;;;;;;1.65;0.50;;;15.70;99.90;;;;;;5056534;28;20032;-75
2023/07/27 06:18:52;;;;;;;0.88;0.65;;;15.50;99.90;;;;;;5055954;28;20075;-75
2023/07/27 06:21:17;;;;;;;1.58;0.70;;;15.60;99.90;;;;;;5056511;28;20154;-75
2023/07/27 06:23:43;;;;;;;1.98;0.30;;;15.60;99.90;;;;;;5055720;28;20036;-75
2023/07/27 06:26:08;;;;;;;1.10;0.57;;;15.60;99.90;;;;;;5055781;28;20017;-75
2023/07/27 06:28:35;;;;;;;0.73;0.30;;;15.70;99.90;;;;;;5056304;28;20055;-75
2023/07/27 06:31:02;;;;;;;0.80;0.40;;;15.70;99.90;;;;;;5054365;28;20027;-75
2023/07/27 06:33:28;;;;;;;2.45;0.68;;;15.80;99.90;;;;;;5055545;28;20037;-75
2023/07/27 06:35:53;;;;;;;0.55;0.30;;;15.80;99.90;;;;;;5054342;28;20040;-75
2023/07/27 06:38:19;;;;;;;1.02;0.40;;;15.90;99.90;;;;;;5056109;28;20073;-75
2023/07/27 06:40:44;;;;;;;0.73;0.30;;;15.90;99.90;;;;;;5056090;28;20057;-75
2023/07/27 06:43:10;;;;;;;3.75;0.45;;;15.90;99.90;;;;;;5054192;28;20028;-75
2023/07/27 06:45:36;;;;;;;1.48;0.40;;;16.00;99.90;;;;;;5054058;28;20052;-75
2023/07/27 06:48:02;;;;;;;2.63;0.35;;;16.00;99.90;;;;;;5055957;28;20369;-75
2023/07/27 06:50:28;;;;;;;0.50;0.30;;;16.10;99.90;;;;;;5055901;28;20468;-75
2023/07/27 06:52:53;;;;;;;0.60;0.47;;;16.20;99.90;;;;;;5055292;28;20025;-75
2023/07/27 06:55:19;;;;;;;0.90;0.30;;;16.30;99.90;;;;;;5055308;28;20044;-75
2023/07/27 06:57:44;;;;;;;0.40;0.15;;;16.40;99.90;;;;;;5055186;28;20071;-75
2023/07/27 07:00:11;;;;;;;0.30;0.10;;;16.40;99.90;;;;;;5055177;28;20055;-75
2023/07/27 07:02:36;;;;;;;0.40;0.15;;;16.40;99.90;;;;;;5054908;28;20029;-75
2023/07/27 07:05:02;;;;;;;0.68;0.40;;;16.40;99.90;;;;;;5055022;28;20357;-75
2023/07/27 07:07:28;;;;;;;0.15;0.05;;;16.40;99.90;;;;;;5053910;28;20049;-75
2023/07/27 07:09:54;;;;;;;0.85;0.05;;;16.50;99.90;;;;;;5055101;28;20056;-75
2023/07/27 07:12:19;;;;;;;0.57;0.00;;;16.50;99.90;;;;;;5055522;28;20049;-75
2023/07/27 07:14:45;;;;;;;0.20;0.10;;;16.60;99.90;;;;;;5055395;28;20043;-75
2023/07/27 07:17:11;;;;;;;0.38;0.30;;;16.70;99.90;;;;;;5054866;28;20056;-75
2023/07/27 07:19:37;;;;;;;0.60;0.10;;;16.70;99.90;;;;;;5054832;28;20104;-75
2023/07/27 07:22:03;;;;;;;0.88;0.00;;;16.80;99.90;;;;;;5054784;28;20025;-75
2023/07/27 07:24:28;;;;;;;2.78;0.20;;;16.80;99.90;;;;;;5054857;28;20553;-75
2023/07/27 07:26:55;;;;;;;0.38;0.20;;;16.80;99.90;;;;;;5054680;28;20108;-75
2023/07/27 07:29:21;;;;;;;0.20;0.00;;;16.80;99.90;;;;;;5055259;28;20021;-75
2023/07/27 07:31:47;;;;;;;1.98;0.57;;;16.90;99.90;;;;;;5054614;28;20064;-75
2023/07/27 07:34:13;;;;;;;0.08;0.00;;;16.90;99.90;;;;;;5054835;28;20429;-75
2023/07/27 07:36:38;;;;;;;0.45;0.08;;;16.90;99.90;;;;;;5054469;28;20053;-75
2023/07/27 07:39:04;;;;;;;0.35;0.10;;;16.90;99.90;;;;;;5054570;28;20029;-75
2023/07/27 07:41:29;;;;;;;0.52;0.00;;;17.00;99.90;;;;;;5055048;28;20028;-75
2023/07/27 07:43:55;;;;;;;0.20;0.00;;;17.00;99.90;;;;;;5054186;28;20025;-75
2023/07/27 07:46:20;;;;;;;0.45;0.00;;;17.00;99.90;;;;;;5054881;28;20031;-75
2023/07/27 07:48:47;;;;;;;0.73;0.10;;;17.00;99.90;;;;;;5054309;28;20017;-75
2023/07/27 07:51:14;;;;;;;0.10;0.00;;;17.10;99.90;;;;;;5053015;28;20036;-75
2023/07/27 07:53:40;;;;;;;2.00;0.40;;;17.20;99.90;;;;;;5054169;28;20507;-75
2023/07/27 07:56:12;;;;;;;0.68;0.00;;;17.20;99.90;;;;;;5052911;28;20450;-75
2023/07/27 07:58:38;;;;;;;0.20;0.00;;;17.30;99.90;;;;;;5054673;28;20482;-75
2023/07/27 08:01:04;;;;;;;0.10;0.00;;;17.30;99.90;;;;;;5054646;28;20021;-75
2023/07/27 08:03:30;;;;;;;0.10;0.00;;;17.40;99.90;;;;;;5052501;28;20037;-75
2023/07/27 08:05:55;;;;;;;0.10;0.00;;;17.50;99.90;;;;;;5052676;28;20072;-75
2023/07/27 08:08:21;;;;;;;0.20;0.00;;;17.50;99.90;;;;;;5052733;28;20021;-75
2023/07/27 08:10:47;;;;;;;0.63;0.00;;;17.60;99.90;;;;;;5053876;28;20028;-75
2023/07/27 08:13:12;;;;;;;0.10;0.00;;;17.60;99.90;;;;;;5053786;28;20028;-75
2023/07/27 08:15:38;;;;;;;0.00;0.00;;;17.60;99.90;;;;;;5052839;28;20025;-75
2023/07/27 08:18:03;;;;;;;0.40;0.00;;;17.60;99.90;;;;;;5053761;28;20131;-75
2023/07/27 08:20:29;;;;;;;0.00;0.00;;;17.60;99.90;;;;;;5054286;28;20369;-75
2023/07/27 08:22:55;;;;;;;0.10;0.03;;;17.60;99.90;;;;;;5053722;28;20419;-75
2023/07/27 08:25:21;;;;;;;0.00;0.00;;;17.60;99.90;;;;;;5052232;28;20036;-74
2023/07/27 08:27:50;;;;;;;0.10;0.10;;;17.60;99.90;;;;;;5053604;28;20021;-75
2023/07/27 08:30:16;;;;;;;;;;;17.80;99.90;;;;;;5052791;28;20603;-75
2023/07/27 08:32:42;;;;;;;1.10;0.00;;;17.80;99.90;;;;;;5053231;28;20010;-75
2023/07/27 08:35:08;;;;;;;1.27;0.28;;;17.70;99.90;;;;;;5052415;28;20049;-75
2023/07/27 08:37:33;;;;;;;0.10;0.00;;;17.80;99.90;;;;;;5052524;28;20032;-75
2023/07/27 08:39:59;;;;;;;1.65;0.00;;;17.80;99.90;;;;;;5053947;28;20021;-75
2023/07/27 08:42:24;;;;;;;2.78;0.90;;;17.80;99.90;;;;;;5052022;28;20124;-75
2023/07/27 08:44:51;;;;;;;0.43;0.00;;;17.90;99.90;;;;;;5052036;28;20071;-75
2023/07/27 08:47:16;;;;;;;1.05;0.10;;;17.90;99.90;;;;;;5051953;28;20021;-75
2023/07/27 08:49:44;;;;;;;0.70;0.00;;;17.90;99.90;;;;;;5052041;28;20024;-75
2023/07/27 08:52:12;;;;;;;0.30;0.10;;;17.90;99.90;;;;;;5053220;28;20025;-75
2023/07/27 08:54:38;;;;;;;0.10;0.00;;;17.90;99.90;;;;;;5053163;28;20086;-75
2023/07/27 08:57:03;;;;;;;0.05;0.00;;;17.90;99.90;;;;;;5053775;28;20029;-75
2023/07/27 08:59:29;;;;;;;0.55;0.00;;;17.90;99.90;;;;;;5052132;28;20025;-75
2023/07/27 09:01:55;;;;;;;1.95;0.20;;;18.00;99.90;;;;;;5053107;28;20057;-75
2023/07/27 09:04:20;;;;;;;0.10;0.00;;;18.10;99.90;;;;;;5053068;28;20078;-75
2023/07/27 09:06:49;;;;;;;0.10;0.00;;;18.10;99.90;;;;;;5053708;28;20025;-75
2023/07/27 09:09:24;;;;;;;1.33;0.00;;;18.10;99.90;;;;;;5053143;28;20021;-75
2023/07/27 09:11:54;;;;;;;0.75;0.03;;;18.10;99.90;;;;;;5051867;28;20024;-75
2023/07/27 09:14:20;;;;;;;0.10;0.00;;;18.10;99.90;;;;;;5051744;28;20025;-75
2023/07/27 09:16:48;;;;;;;0.03;0.00;;;18.20;99.90;;;;;;5053616;28;20021;-75
2023/07/27 09:19:19;;;;;;;0.98;0.00;;;18.20;99.90;;;;;;5053174;28;20076;-75
2023/07/27 09:21:48;;;;;;;0.32;0.00;;;18.10;99.90;;;;;;5053086;28;20025;-75
2023/07/27 09:24:16;;;;;;;0.05;0.00;;;18.20;99.90;;;;;;5052898;28;20029;-75
2023/07/27 09:26:45;;;;;;;0.00;0.00;;;18.30;99.90;;;;;;5051757;28;20017;-75
2023/07/27 09:29:15;;;;;;;5.05;0.20;;;18.30;99.90;;;;;;5052826;28;20023;-75
2023/07/27 09:31:48;;;;;;;0.00;0.00;;;18.30;99.90;;;;;;5053508;28;20017;-75
2023/07/27 09:34:18;;;;;;;0.20;0.00;;;18.40;99.90;;;;;;5053400;28;20025;-75
2023/07/27 09:36:45;;;;;;;0.10;0.10;;;18.50;99.90;;;;;;5053056;28;20147;-75
2023/07/27 09:39:11;;;;;;;0.00;0.00;;;18.50;99.90;;;;;;5052912;28;20033;-75
2023/07/27 09:41:38;;;;;;;4.47;0.35;;;18.60;99.90;;;;;;5052866;28;20025;-75
2023/07/27 09:44:04;;;;;;;0.20;0.20;;;18.60;99.90;;;;;;5052787;28;20029;-75
2023/07/27 09:46:30;;;;;;;0.65;0.00;;;18.70;99.90;;;;;;5056275;28;20028;-75
2023/07/27 09:48:57;;;;;;;0.00;0.00;;;18.80;99.90;;;;;;5055421;28;20017;-75
2023/07/27 09:51:26;;;;;;;0.00;0.00;;;18.60;99.90;;;;;;5055534;28;20506;-74
2023/07/27 09:53:52;;;;;;;0.43;0.00;;;18.50;99.90;;;;;;5056409;28;20070;-76
2023/07/27 09:56:17;;;;;;;0.00;0.00;;;18.40;99.90;;;;;;5056808;28;20421;-75
2023/07/27 09:58:46;;;;;;;0.00;0.00;;;18.40;99.90;;;;;;5056598;28;20078;-75
2023/07/27 10:01:11;;;;;;;0.00;0.00;;;18.50;99.90;;;;;;5055213;28;20480;-75
2023/07/27 10:03:37;;;;;;;0.00;0.00;;;18.60;99.90;;;;;;5056247;28;20158;-75
2023/07/27 10:06:04;;;;;;;0.17;0.00;;;18.70;99.90;;;;;;5055085;28;20021;-75
2023/07/27 10:08:31;;;;;;;0.43;0.00;;;18.90;99.90;;;;;;5055037;28;20024;-75
2023/07/27 10:11:03;;;;;;;0.35;0.00;;;18.90;99.90;;;;;;5056260;28;20099;-75
2023/07/27 10:13:29;;;;;;;0.00;0.00;;;19.00;99.90;;;;;;5054904;28;20036;-75
2023/07/27 10:15:56;;;;;;;0.00;0.00;;;19.00;99.90;;;;;;5056711;28;20107;-74
2023/07/27 10:18:26;;;;;;;0.00;0.00;;;19.00;99.90;;;;;;5056646;28;20033;-75
2023/07/27 10:20:55;;;;;;;0.90;0.00;;;19.10;99.90;;;;;;5056090;28;20099;-75
2023/07/27 10:23:28;;;;;;;0.00;0.00;;;19.20;99.90;;;;;;5055846;28;20040;-74
2023/07/27 10:25:57;;;;;;;0.13;0.00;;;19.10;99.90;;;;;;5056711;28;20029;-74
2023/07/27 10:28:47;;;;;;;0.00;0.00;;;19.10;99.90;;;;;;5056467;28;20413;-75
2023/07/27 10:31:20;;;;;;;0.10;0.00;;;19.10;99.90;;;;;;5054769;28;20133;-75
2023/07/27 10:34:07;;;;;;;0.00;0.00;;;19.10;99.90;;;;;;5056239;28;20025;-75
2023/07/27 10:36:58;;;;;;;0.90;0.00;;;19.10;99.90;;;;;;5050594;28;20044;-75
2023/07/27 10:39:26;;;;;;;0.20;0.10;;;19.30;99.90;;;;;;5055861;28;20154;-75
2023/07/27 10:42:01;;;;;;;0.70;0.00;;;19.40;99.90;;;;;;5056102;28;20057;-75
2023/07/27 10:44:43;;;;;;;0.10;0.00;;;19.40;99.90;;;;;;5055490;28;20078;-75
2023/07/27 10:47:11;;;;;;;0.10;0.10;;;19.40;99.90;;;;;;5055743;28;20025;-75
2023/07/27 10:49:44;;;;;;;0.10;0.00;;;19.60;99.90;;;;;;5054380;28;20028;-75
2023/07/27 10:52:33;;;;;;;0.10;0.00;;;19.50;99.90;;;;;;5055673;28;20059;-75
2023/07/27 10:55:00;;;;;;;0.75;0.10;;;19.50;99.90;;;;;;5055176;28;20037;-75
2023/07/27 10:57:27;;;;;;;0.32;0.00;;;19.50;99.90;;;;;;5053869;28;20044;-75
2023/07/27 10:59:53;;;;;;;0.80;0.00;;;19.50;99.90;;;;;;5054161;28;20024;-75
2023/07/27 11:02:32;;;;;;;0.70;0.00;;;19.50;99.90;;;;;;5053894;28;20029;-75
2023/07/27 11:05:02;;;;;;;0.05;0.00;;;19.40;99.90;;;;;;5055252;28;20033;-75
2023/07/27 11:07:36;;;;;;;0.40;0.20;;;19.40;99.90;;;;;;5053843;28;20013;-75
2023/07/27 11:10:09;;;;;;;1.10;0.00;;;19.60;99.90;;;;;;5055122;28;20021;-75
2023/07/27 11:12:52;;;;;;;0.73;0.00;;;19.60;99.90;;;;;;5055502;28;20021;-75
2023/07/27 11:15:23;;;;;;;1.45;0.22;;;19.60;99.90;;;;;;5053916;28;20510;-75
2023/07/27 11:17:49;;;;;;;0.20;0.00;;;19.70;99.90;;;;;;5053772;28;20017;-75
2023/07/27 11:20:18;;;;;;;0.30;0.00;;;19.70;99.90;;;;;;5055050;28;20063;-75
2023/07/27 11:22:44;;;;;;;;;;;19.60;99.90;;;;;;5055531;28;20021;-75
2023/07/27 11:25:10;;;;;;;1.55;0.00;;;19.60;99.90;;;;;;5053502;28;19904;-75
2023/07/27 11:27:37;;;;;;;2.40;0.00;;;19.80;99.90;;;;;;5054858;28;20031;-75
2023/07/27 11:30:06;;;;;;;0.80;0.22;;;19.80;99.90;;;;;;5054800;28;20029;-75
2023/07/27 11:32:32;;;;;;;0.85;0.10;;;19.80;99.90;;;;;;5054701;28;20115;-75
2023/07/27 11:34:57;;;;;;;1.02;0.00;;;19.70;99.90;;;;;;5053437;28;20028;-74
2023/07/27 11:37:26;;;;;;;0.10;0.08;;;19.70;99.90;;;;;;5054623;28;20033;-75
2023/07/27 11:39:52;;;;;;;0.17;0.00;;;19.60;99.90;;;;;;5054661;28;20025;-75
2023/07/27 11:42:26;;;;;;;0.70;0.10;;;19.60;99.90;;;;;;5053228;28;20021;-75
2023/07/27 11:44:52;;;;;;;1.27;0.13;;;19.70;99.90;;;;;;5054588;28;20024;-75
2023/07/27 11:47:18;;;;;;;2.45;0.00;;;20.00;99.90;;;;;;5054920;28;20021;-75
2023/07/27 11:49:44;;;;;;;0.40;0.00;;;20.10;99.90;;;;;;5054436;28;20017;-75
2023/07/27 11:52:09;;;;;;;0.10;0.10;;;20.10;99.90;;;;;;5054453;28;20020;-75
2023/07/27 11:54:40;;;;;;;1.08;0.25;;;20.00;99.90;;;;;;5052899;28;20170;-75
2023/07/27 11:57:06;;;;;;;0.35;0.00;;;19.90;99.90;;;;;;5054813;28;20472;-75
2023/07/27 11:59:31;;;;;;;0.10;0.00;;;19.80;99.90;;;;;;5052885;28;20032;-75
2023/07/27 12:01:57;;;;;;;0.10;0.00;;;19.70;99.90;;;;;;5052684;28;20488;-75
2023/07/27 12:04:25;;;;;;;0.32;0.10;;;19.70;99.90;;;;;;5054042;28;20029;-74
2023/07/27 12:06:51;;;;;;;0.63;0.20;;;19.60;99.90;;;;;;5054162;28;20021;-75
2023/07/27 12:09:16;;;;;;;0.00;0.00;;;19.60;99.90;;;;;;5053246;28;20071;-75
2023/07/27 12:11:43;;;;;;;0.08;0.00;;;19.60;99.90;;;;;;5053840;28;20021;-75
2023/07/27 12:14:10;;;;;;;0.55;0.00;;;19.40;99.90;;;;;;5053808;28;20032;-75
2023/07/27 12:16:44;;;;;;;0.10;0.00;;;19.40;99.90;;;;;;5053831;28;20025;-75
2023/07/27 12:19:10;;;;;;;0.00;0.00;;;19.50;99.90;;;;;;5053937;28;20040;-75
2023/07/27 12:21:38;;;;;;;0.13;0.00;;;19.70;99.90;;;;;;5053799;28;20025;-75
2023/07/27 12:24:08;;;;;;;0.40;0.00;;;19.80;99.90;;;;;;5053596;28;20029;-75
2023/07/27 12:26:37;;;;;;;0.00;0.00;;;19.80;99.90;;;;;;5053674;28;20013;-75
2023/07/27 12:29:03;;;;;;;0.80;0.20;;;19.90;99.90;;;;;;5053517;28;20025;-75
2023/07/27 12:31:30;;;;;;;0.30;0.00;;;20.00;99.90;;;;;;5052242;28;20483;-75
2023/07/27 12:33:55;;;;;;;1.15;0.25;;;20.00;99.90;;;;;;5052165;28;20059;-75
2023/07/27 12:36:21;;;;;;;0.55;0.00;;;20.00;99.90;;;;;;5053503;28;20037;-75
2023/07/27 12:38:46;;;;;;;0.00;0.00;;;19.80;99.90;;;;;;5053563;28;20486;-75
2023/07/27 12:41:13;;;;;;;0.47;0.00;;;19.80;99.90;;;;;;5053947;28;20025;-75
2023/07/27 12:43:39;;;;;;;0.85;0.05;;;19.90;99.90;;;;;;5053415;28;20025;-75
2023/07/27 12:46:05;;;;;;;0.10;0.10;;;19.80;99.90;;;;;;5053874;28;20025;-76
2023/07/27 12:48:31;;;;;;;0.20;0.20;;;19.80;99.90;;;;;;5053267;28;20021;-74